Agios Stilianos — SW6053 — position and weather

sailwx.info

Track history (hours):
 
Tides and Currents Weather Stations Pressure Air Temp Water Temp Dewpoint Dewpoint Depression Visibility Wind Speed Wind Dir Waves Ship Positions

Agios Stilianos

Last reported at 2018-Feb-18 03:49 UTC. Time now 2018-Feb-23 03:02 UTC.
Position N 40°45' E 024°24'.

Length 22 m; draft 2.6 m.

Type: Fishing. MMSI: 237350000.

Date/timePositionNaut miles runAvg speedWind from/ knotsBaromVisibWave heightAir tempDewpointWater temp
2018-Feb-18 03:49N 40°45' E 024°24'1 3.0
2018-Feb-18 03:30N 40°45' E 024°25'1 3.0
2018-Feb-18 03:00N 40°46' E 024°26'1 3.0
2018-Feb-18 02:30N 40°48' E 024°27'1 3.0
2018-Feb-18 02:00N 40°49' E 024°26'2 3.1
2018-Feb-18 01:31N 40°50' E 024°25'1 1.0
2018-Feb-18 01:00N 40°50' E 024°25'1 3.0
2018-Feb-18 00:30N 40°49' E 024°27'2 3.1
2018-Feb-18 00:00N 40°49' E 024°29'1 2.1
2018-Feb-17 23:30N 40°49' E 024°28'1 2.8
2018-Feb-17 23:00N 40°50' E 024°26'1 2.3
2018-Feb-17 22:30N 40°51' E 024°25'2 2.9
2018-Feb-17 22:00N 40°51' E 024°27'18 7.2
2018-Feb-17 19:32N 40°46' E 024°50'0 0.6
2018-Feb-17 19:28N 40°46' E 024°50'1 2.2
2018-Feb-17 19:00N 40°47' E 024°51'4 1.0
2018-Feb-17 14:50N 40°48' E 024°57'1 3.0
2018-Feb-17 14:30N 40°47' E 024°56'2 2.9
2018-Feb-17 13:59N 40°46' E 024°55'1 2.8
2018-Feb-17 13:29N 40°45' E 024°53'1 2.8
2018-Feb-17 12:57N 40°45' E 024°51'1 2.1
2018-Feb-17 12:26N 40°45' E 024°53'5 1.8
2018-Feb-17 09:38N 40°48' E 024°59'1 3.0
2018-Feb-17 09:15N 40°47' E 024°57'1 3.0
2018-Feb-17 08:56N 40°47' E 024°56'1 3.0
2018-Feb-17 08:27N 40°46' E 024°55'1 2.9
2018-Feb-17 08:00N 40°45' E 024°53'1 1.6
2018-Feb-17 07:21N 40°45' E 024°52'1 2.9
2018-Feb-17 06:56N 40°46' E 024°53'5 1.7
2018-Feb-17 04:09N 40°48' E 024°59'1 3.0
2018-Feb-17 03:51N 40°48' E 024°57'1 3.0
2018-Feb-17 03:30N 40°48' E 024°56'2 2.9
2018-Feb-17 02:56N 40°47' E 024°54'1 2.9
2018-Feb-17 02:29N 40°47' E 024°52'2 3.2
2018-Feb-17 02:00N 40°46' E 024°50'4 7.2
2018-Feb-17 01:30N 40°48' E 024°46'3 6.9
2018-Feb-17 01:00N 40°49' E 024°42'4 7.2
2018-Feb-17 00:30N 40°50' E 024°37'4 8.0
2018-Feb-17 00:00N 40°52' E 024°32'4 8.2
2018-Feb-16 23:30N 40°54' E 024°28'4 2.9
2018-Feb-16 22:17N 40°56' E 024°23'2 6.6
2018-Feb-16 22:01N 40°54' E 024°24'4 7.9
2018-Feb-16 21:30N 40°50' E 024°25'1 2.1
2018-Feb-16 21:00N 40°50' E 024°26'2 3.0
2018-Feb-16 20:30N 40°49' E 024°28'1 2.7
2018-Feb-16 20:00N 40°48' E 024°27'1 2.9
2018-Feb-16 19:30N 40°46' E 024°26'1 3.0
2018-Feb-16 19:00N 40°45' E 024°25'2 3.0
2018-Feb-16 18:30N 40°44' E 024°23'1 2.8
2018-Feb-16 17:59N 40°44' E 024°21'7 0.3
2018-Feb-15 20:37N 40°51' E 024°19'0 0.0
2018-Feb-15 20:30N 40°51' E 024°19'0 0.0
2018-Feb-15 19:59N 40°51' E 024°19'2 1.6
2018-Feb-15 18:54N 40°50' E 024°21'2 5.8
2018-Feb-15 18:30N 40°50' E 024°24'1 2.2
2018-Feb-15 17:57N 40°50' E 024°26'1 3.1
2018-Feb-15 17:30N 40°50' E 024°28'1 2.0
2018-Feb-15 17:00N 40°49' E 024°29'1 2.9
2018-Feb-15 16:30N 40°49' E 024°27'1 2.4
2018-Feb-15 16:00N 40°50' E 024°26'1 2.8
2018-Feb-15 15:30N 40°52' E 024°27'1 2.9
2018-Feb-15 15:00N 40°53' E 024°28'3 1.5
2018-Feb-15 12:37N 40°49' E 024°29'0 1.7
2018-Feb-15 12:30N 40°49' E 024°29'1 1.2
2018-Feb-15 12:00N 40°49' E 024°28'1 2.9
2018-Feb-15 11:31N 40°49' E 024°26'1 2.9
2018-Feb-15 11:00N 40°48' E 024°25'1 3.0
2018-Feb-15 10:31N 40°46' E 024°24'1 2.9
2018-Feb-15 10:00N 40°46' E 024°22'1 2.9
2018-Feb-15 09:30N 40°46' E 024°20'2 3.0
2018-Feb-15 08:59N 40°46' E 024°18'1 2.9
2018-Feb-15 08:30N 40°45' E 024°16'2 3.0
2018-Feb-15 08:00N 40°45' E 024°14'4 1.4
2018-Feb-15 04:55N 40°45' E 024°20'2 2.9
2018-Feb-15 04:14N 40°45' E 024°22'1 3.0
2018-Feb-15 04:00N 40°45' E 024°23'1 2.9
2018-Feb-15 03:30N 40°45' E 024°25'1 3.0
2018-Feb-15 03:00N 40°47' E 024°26'1 3.0
2018-Feb-15 02:30N 40°48' E 024°27'1 2.9
2018-Feb-15 02:00N 40°49' E 024°28'2 2.9
2018-Feb-15 01:29N 40°51' E 024°28'2 5.2
2018-Feb-15 01:00N 40°53' E 024°26'  
2018-Feb-10 16:52N 40°56' E 024°25'2 5.6
2018-Feb-10 16:31N 40°55' E 024°27'4 8.9
2018-Feb-10 16:01N 40°53' E 024°32'5 9.3
2018-Feb-10 15:30N 40°51' E 024°38'  
Track history (hours):
 
Tides and Currents Weather Stations Pressure Air Temp Water Temp Dewpoint Dewpoint Depression Visibility Wind Speed Wind Dir Waves Ship Positions

Agios Stilianos

Last reported at 2018-Feb-18 03:49 UTC. Time now 2018-Feb-23 03:02 UTC.
Position N 40°45' E 024°24'.

Length 22 m; draft 2.6 m.

Type: Fishing. MMSI: 237350000.

Date/timePositionNaut miles runAvg speedWind from/ knotsBaromVisibWave heightAir tempDewpointWater temp
2018-Feb-18 03:49N 40°45' E 024°24'1 3.0
2018-Feb-18 03:30N 40°45' E 024°25'1 3.0
2018-Feb-18 03:00N 40°46' E 024°26'1 3.0
2018-Feb-18 02:30N 40°48' E 024°27'1 3.0
2018-Feb-18 02:00N 40°49' E 024°26'2 3.1
2018-Feb-18 01:31N 40°50' E 024°25'1 1.0
2018-Feb-18 01:00N 40°50' E 024°25'1 3.0
2018-Feb-18 00:30N 40°49' E 024°27'2 3.1
2018-Feb-18 00:00N 40°49' E 024°29'1 2.1
2018-Feb-17 23:30N 40°49' E 024°28'1 2.8
2018-Feb-17 23:00N 40°50' E 024°26'1 2.3
2018-Feb-17 22:30N 40°51' E 024°25'2 2.9
2018-Feb-17 22:00N 40°51' E 024°27'18 7.2
2018-Feb-17 19:32N 40°46' E 024°50'0 0.6
2018-Feb-17 19:28N 40°46' E 024°50'1 2.2
2018-Feb-17 19:00N 40°47' E 024°51'4 1.0
2018-Feb-17 14:50N 40°48' E 024°57'1 3.0
2018-Feb-17 14:30N 40°47' E 024°56'2 2.9
2018-Feb-17 13:59N 40°46' E 024°55'1 2.8
2018-Feb-17 13:29N 40°45' E 024°53'1 2.8
2018-Feb-17 12:57N 40°45' E 024°51'1 2.1
2018-Feb-17 12:26N 40°45' E 024°53'5 1.8
2018-Feb-17 09:38N 40°48' E 024°59'1 3.0
2018-Feb-17 09:15N 40°47' E 024°57'1 3.0
2018-Feb-17 08:56N 40°47' E 024°56'1 3.0
2018-Feb-17 08:27N 40°46' E 024°55'1 2.9
2018-Feb-17 08:00N 40°45' E 024°53'1 1.6
2018-Feb-17 07:21N 40°45' E 024°52'1 2.9
2018-Feb-17 06:56N 40°46' E 024°53'5 1.7
2018-Feb-17 04:09N 40°48' E 024°59'1 3.0
2018-Feb-17 03:51N 40°48' E 024°57'1 3.0
2018-Feb-17 03:30N 40°48' E 024°56'2 2.9
2018-Feb-17 02:56N 40°47' E 024°54'1 2.9
2018-Feb-17 02:29N 40°47' E 024°52'2 3.2
2018-Feb-17 02:00N 40°46' E 024°50'4 7.2
2018-Feb-17 01:30N 40°48' E 024°46'3 6.9
2018-Feb-17 01:00N 40°49' E 024°42'4 7.2
2018-Feb-17 00:30N 40°50' E 024°37'4 8.0
2018-Feb-17 00:00N 40°52' E 024°32'4 8.2
2018-Feb-16 23:30N 40°54' E 024°28'4 2.9
2018-Feb-16 22:17N 40°56' E 024°23'2 6.6
2018-Feb-16 22:01N 40°54' E 024°24'4 7.9
2018-Feb-16 21:30N 40°50' E 024°25'1 2.1
2018-Feb-16 21:00N 40°50' E 024°26'2 3.0
2018-Feb-16 20:30N 40°49' E 024°28'1 2.7
2018-Feb-16 20:00N 40°48' E 024°27'1 2.9
2018-Feb-16 19:30N 40°46' E 024°26'1 3.0
2018-Feb-16 19:00N 40°45' E 024°25'2 3.0
2018-Feb-16 18:30N 40°44' E 024°23'1 2.8
2018-Feb-16 17:59N 40°44' E 024°21'7 0.3
2018-Feb-15 20:37N 40°51' E 024°19'0 0.0
2018-Feb-15 20:30N 40°51' E 024°19'0 0.0
2018-Feb-15 19:59N 40°51' E 024°19'2 1.6
2018-Feb-15 18:54N 40°50' E 024°21'2 5.8
2018-Feb-15 18:30N 40°50' E 024°24'1 2.2
2018-Feb-15 17:57N 40°50' E 024°26'1 3.1
2018-Feb-15 17:30N 40°50' E 024°28'1 2.0
2018-Feb-15 17:00N 40°49' E 024°29'1 2.9
2018-Feb-15 16:30N 40°49' E 024°27'1 2.4
2018-Feb-15 16:00N 40°50' E 024°26'1 2.8
2018-Feb-15 15:30N 40°52' E 024°27'1 2.9
2018-Feb-15 15:00N 40°53' E 024°28'3 1.5
2018-Feb-15 12:37N 40°49' E 024°29'0 1.7
2018-Feb-15 12:30N 40°49' E 024°29'1 1.2
2018-Feb-15 12:00N 40°49' E 024°28'1 2.9
2018-Feb-15 11:31N 40°49' E 024°26'1 2.9
2018-Feb-15 11:00N 40°48' E 024°25'1 3.0
2018-Feb-15 10:31N 40°46' E 024°24'1 2.9
2018-Feb-15 10:00N 40°46' E 024°22'1 2.9
2018-Feb-15 09:30N 40°46' E 024°20'2 3.0
2018-Feb-15 08:59N 40°46' E 024°18'1 2.9
2018-Feb-15 08:30N 40°45' E 024°16'2 3.0
2018-Feb-15 08:00N 40°45' E 024°14'4 1.4
2018-Feb-15 04:55N 40°45' E 024°20'2 2.9
2018-Feb-15 04:14N 40°45' E 024°22'1 3.0
2018-Feb-15 04:00N 40°45' E 024°23'1 2.9
2018-Feb-15 03:30N 40°45' E 024°25'1 3.0
2018-Feb-15 03:00N 40°47' E 024°26'1 3.0
2018-Feb-15 02:30N 40°48' E 024°27'1 2.9
2018-Feb-15 02:00N 40°49' E 024°28'2 2.9
2018-Feb-15 01:29N 40°51' E 024°28'2 5.2
2018-Feb-15 01:00N 40°53' E 024°26'  
2018-Feb-10 16:52N 40°56' E 024°25'2 5.6
2018-Feb-10 16:31N 40°55' E 024°27'4 8.9
2018-Feb-10 16:01N 40°53' E 024°32'5 9.3
2018-Feb-10 15:30N 40°51' E 024°38'  

Dump ship's entire track history